M I D A S
Marine Information and Data Acquisition System
Tripno 2297 of the Zeeleeuw from 2012-04-26 08:26:08 to 2012-04-26 14:07:33
Back to CruiseResearch ActivitiesStationsMapUnderway DataData graphs

EquipmentUnitsComment
TimeDGPSUTC
LatitudeDGPSDM.mWGS84
LongitudeDGPSDM.mWGS84
HeadingGyrodeg 
SOGDGPSknotsSpeed over ground
COGDGPSdegCourse over ground
DepthEcho soundermeters200 kHz
Missing or incorrect values are displayed as -999
Navigation data collected by the RV Zeeleeuw from 2012-04-26 07:44:46 to 2012-04-26 14:19:11
Time Latitude Longitude Heading SOG COG Depth
2012-04-26 07:45:52 51°13.639 2°56.017 126.5 0.1 347 -999
2012-04-26 07:46:51 51°13.638 2°56.017 126.5 0.1 197 -999
2012-04-26 07:47:52 51°13.638 2°56.017 126.4 -999 223 -999
2012-04-26 07:48:52 51°13.638 2°56.018 126.4 -999 65 -999
2012-04-26 07:49:51 51°13.638 2°56.018 126.5 -999 264 -999
2012-04-26 07:50:51 51°13.637 2°56.018 126.5 0.1 191 -999
2012-04-26 07:51:51 51°13.638 2°56.018 126.5 0.1 1 -999
2012-04-26 07:52:51 51°13.638 2°56.019 126.5 0.3 19 -999
2012-04-26 07:53:52 51°13.639 2°56.02 126.2 0.1 31 -999
2012-04-26 07:54:51 51°13.638 2°56.019 126.2 0.1 345 -999
2012-04-26 07:55:52 51°13.636 2°56.018 126 -999 208 -999
2012-04-26 07:56:52 51°13.636 2°56.019 126.2 0.1 351 -999
2012-04-26 07:57:51 51°13.636 2°56.019 125.9 0.1 171 -999
2012-04-26 07:58:51 51°13.635 2°56.018 126 0.1 188 -999
2012-04-26 07:59:52 51°13.637 2°56.018 126 -999 3 -999
2012-04-26 08:00:51 51°13.637 2°56.018 126 -999 339 -999
2012-04-26 08:01:52 51°13.638 2°56.018 125.8 -999 164 -999
2012-04-26 08:02:52 51°13.64 2°56.019 126 -999 302 -999
2012-04-26 08:03:52 51°13.639 2°56.019 125.9 -999 352 -999
2012-04-26 08:04:51 51°13.638 2°56.018 125.9 -999 289 -999
2012-04-26 08:05:51 51°13.635 2°56.017 125.9 0.1 8 -999
2012-04-26 08:06:52 51°13.635 2°56.017 125.8 -999 349 -999
2012-04-26 08:07:51 51°13.636 2°56.017 125.7 -999 322 -999
2012-04-26 08:08:52 51°13.636 2°56.017 126.4 0.1 209 -999
2012-04-26 08:09:51 51°13.636 2°56.017 126.1 -999 200 -999
2012-04-26 08:10:51 51°13.636 2°56.017 126.1 0.2 223 -999
2012-04-26 08:11:51 51°13.636 2°56.018 126 0.1 177 -999
2012-04-26 08:12:52 51°13.636 2°56.017 125.7 -999 358 -999
2012-04-26 08:13:51 51°13.636 2°56.017 125.8 0.1 343 -999
2012-04-26 08:14:52 51°13.636 2°56.016 126.3 -999 186 -999
2012-04-26 08:15:52 51°13.636 2°56.016 126 -999 148 -999
2012-04-26 08:16:52 51°13.636 2°56.017 126.2 -999 156 -999
2012-04-26 08:17:52 51°13.637 2°56.016 125.9 -999 346 -999
2012-04-26 08:18:52 51°13.637 2°56.016 125.8 -999 171 -999
2012-04-26 08:19:52 51°13.637 2°56.017 125.8 -999 246 -999
2012-04-26 08:20:51 51°13.636 2°56.017 125.8 -999 194 -999
2012-04-26 08:21:51 51°13.636 2°56.018 126.8 -999 248 -999
2012-04-26 08:22:51 51°13.636 2°56.018 127.4 0.1 223 -999
2012-04-26 08:23:51 51°13.634 2°56.019 127.2 0.1 351 -999
2012-04-26 08:24:51 51°13.631 2°56.021 127.1 -999 266 -999
2012-04-26 08:25:52 51°13.633 2°56.021 127.1 -999 354 -999
2012-04-26 08:26:52 51°13.634 2°56.02 127.6 -999 346 -999
2012-04-26 08:27:52 51°13.635 2°56.02 127.3 0.1 122 -999
2012-04-26 08:28:51 51°13.635 2°56.02 120.2 0.1 231 -999
2012-04-26 08:29:51 51°13.632 2°56.019 113.6 0.1 181 -999
2012-04-26 08:30:51 51°13.632 2°56.018 108.2 0.2 313 -999
2012-04-26 08:31:52 51°13.648 2°55.96 101.3 2.4 291 -999
2012-04-26 08:32:52 51°13.658 2°55.928 95.4 1.3 282 -999
2012-04-26 08:33:51 51°13.667 2°55.907 113 3 294 4.8
2012-04-26 08:34:51 51°13.693 2°55.819 114.9 3.9 296 -999
2012-04-26 08:35:51 51°13.713 2°55.736 93.7 2.9 282 -999
2012-04-26 08:36:51 51°13.725 2°55.715 43.9 1.8 20 -999
2012-04-26 08:37:51 51°13.718 2°55.711 0.6 2.2 186 -999
2012-04-26 08:38:51 51°13.756 2°55.681 338 6.4 335 -999
2012-04-26 08:39:51 51°13.884 2°55.594 339.2 9.4 337 -999
2012-04-26 08:40:51 51°14.028 2°55.492 337.3 9.6 335 -999
2012-04-26 08:41:51 51°14.176 2°55.373 334.1 10.2 331 -999
2012-04-26 08:42:52 51°14.333 2°55.231 331.7 11.2 330 -999
2012-04-26 08:43:52 51°14.499 2°55.08 333 11.6 331 -999
2012-04-26 08:44:49 51°14.645 2°54.895 323.1 12.1 313 10.8
2012-04-26 08:45:48 51°14.705 2°54.607 268.2 12 262 9.9
2012-04-26 08:46:48 51°14.602 2°54.33 229.9 12.4 231 9
2012-04-26 08:47:48 51°14.469 2°54.073 228.8 12.5 229 9.1
2012-04-26 08:48:48 51°14.326 2°53.832 227.5 12.5 229 8.8
2012-04-26 08:49:48 51°14.186 2°53.588 230 12.6 231 8.7
2012-04-26 08:50:48 51°14.059 2°53.321 234.7 12.7 235 8.6
2012-04-26 08:51:48 51°13.948 2°53.034 240.4 12.8 241 8.8
2012-04-26 08:52:48 51°13.841 2°52.742 239.5 12.7 239 9
2012-04-26 08:53:48 51°13.726 2°52.457 236.4 12.7 236 9.3
2012-04-26 08:54:48 51°13.611 2°52.172 238 12.7 238 9.3
2012-04-26 08:55:48 51°13.497 2°51.889 236.7 12.7 236 9.5
2012-04-26 08:56:48 51°13.383 2°51.608 237.7 12.7 238 9.8
2012-04-26 08:57:48 51°13.28 2°51.317 244.9 12.6 245 9.8
2012-04-26 08:58:48 51°13.19 2°51.012 244.7 12.7 244 9.8
2012-04-26 08:59:48 51°13.087 2°50.717 238.4 12.8 239 9.9
2012-04-26 09:00:48 51°12.984 2°50.422 240.3 12.6 239 10
2012-04-26 09:01:48 51°12.867 2°50.147 235.2 12.6 237 10.1
2012-04-26 09:02:48 51°12.773 2°49.85 252.3 12.8 251 10.3
2012-04-26 09:03:48 51°12.708 2°49.525 252.1 13 250 10.7
2012-04-26 09:04:48 51°12.619 2°49.215 243.3 12.8 243 10.8
2012-04-26 09:05:48 51°12.539 2°48.898 248.1 12.8 246 11
2012-04-26 09:06:48 51°12.455 2°48.584 250.4 12.9 249 11.1
2012-04-26 09:07:48 51°12.368 2°48.276 242.8 12.8 241 11.3
2012-04-26 09:08:48 51°12.264 2°47.981 242.5 12.8 242 11.5
2012-04-26 09:09:48 51°12.172 2°47.676 245.4 12.8 244 11.5
2012-04-26 09:10:48 51°12.081 2°47.37 250.3 12.9 250 11.6
2012-04-26 09:11:48 51°12.01 2°47.049 251.4 12.9 250 11.9
2012-04-26 09:12:48 51°11.925 2°46.739 245.2 12.9 245 12.1
2012-04-26 09:13:48 51°11.838 2°46.427 245.1 12.8 245 12
2012-04-26 09:14:48 51°11.755 2°46.112 247.1 12.8 247 12
2012-04-26 09:15:48 51°11.665 2°45.805 246 12.8 245 11.8
2012-04-26 09:16:48 51°11.587 2°45.498 252.6 10.5 252 11.9
2012-04-26 09:17:48 51°11.56 2°45.317 270 5.1 272 12.1
2012-04-26 09:18:48 51°11.571 2°45.238 312.9 1.5 292 11.9
2012-04-26 09:19:48 51°11.575 2°45.217 332.7 0.6 294 12.1
2012-04-26 09:20:48 51°11.58 2°45.199 331.6 0.8 295 12.2
2012-04-26 09:21:48 51°11.587 2°45.18 319.8 0.8 297 11.8
2012-04-26 09:22:48 51°11.597 2°45.135 285.8 3.1 279 12.1
2012-04-26 09:23:48 51°11.577 2°45.045 223 3.9 227 12
2012-04-26 09:24:47 51°11.522 2°45.013 170 2.7 182 11.9
2012-04-26 09:25:48 51°11.49 2°45.016 154.6 1.4 172 12
2012-04-26 09:26:48 51°11.475 2°45.016 152.5 0.7 196 12
2012-04-26 09:27:47 51°11.466 2°45.013 150.4 0.9 175 12
2012-04-26 09:28:49 51°11.391 2°45.026 176.7 6.6 185 11.6
2012-04-26 09:29:48 51°11.29 2°45.004 183 5 193 10.9
2012-04-26 09:30:48 51°11.221 2°44.979 186.2 3.8 196 10.4
2012-04-26 09:31:48 51°11.166 2°44.947 193.3 3.3 204 9.8
2012-04-26 09:32:48 51°11.115 2°44.911 196.7 3.3 209 9.3
2012-04-26 09:33:48 51°11.067 2°44.871 197.8 3.2 210 9
2012-04-26 09:34:48 51°11.019 2°44.836 195.3 3.2 203 8.9
2012-04-26 09:35:48 51°10.973 2°44.801 194.1 3.1 204 8.6
2012-04-26 09:36:48 51°10.928 2°44.775 188.7 2.9 196 8.3
2012-04-26 09:37:48 51°10.883 2°44.75 189 2.9 200 8.1
2012-04-26 09:38:48 51°10.835 2°44.728 185.2 3 197 7.9
2012-04-26 09:39:48 51°10.788 2°44.716 177.6 2.7 185 7.8
2012-04-26 09:40:48 51°10.744 2°44.715 170 2.5 178 7.7
2012-04-26 09:41:48 51°10.702 2°44.722 165 2.5 174 7.8
2012-04-26 09:42:48 51°10.662 2°44.734 159.3 2.5 167 7.7
2012-04-26 09:43:48 51°10.617 2°44.756 155.3 2.8 161 7.9
2012-04-26 09:44:48 51°10.575 2°44.786 149.9 2.9 155 7.9
2012-04-26 09:45:48 51°10.531 2°44.807 162.2 2.7 169 7.9
2012-04-26 09:46:48 51°10.485 2°44.804 182.5 2.9 188 5.8
2012-04-26 09:47:48 51°10.44 2°44.768 210 3.1 223 7.8
2012-04-26 09:48:48 51°10.411 2°44.696 239.3 3.4 247 7.8
2012-04-26 09:49:48 51°10.393 2°44.61 248.7 3 258 7.9
2012-04-26 09:50:48 51°10.389 2°44.549 253.6 1.9 268 7.9
2012-04-26 09:51:48 51°10.389 2°44.508 256.3 1.4 278 8
2012-04-26 09:52:48 51°10.393 2°44.478 262.2 1 287 7.9
2012-04-26 09:53:48 51°10.401 2°44.458 274.8 0.7 312 6
2012-04-26 09:54:46 51°10.413 2°44.44 294.2 2.5 299 8
2012-04-26 09:55:46 51°10.461 2°44.309 312.3 6 309 8.1
2012-04-26 09:56:47 51°10.51 2°44.211 307.7 3.8 301 8.1
2012-04-26 09:57:47 51°10.529 2°44.146 293.3 2.2 288 7.9
2012-04-26 09:58:48 51°10.539 2°44.097 286 1.6 283 8.2
2012-04-26 09:59:48 51°10.546 2°44.058 281.6 1.7 286 8
2012-04-26 10:00:48 51°10.558 2°43.929 279.3 8.8 277 7.9
2012-04-26 10:01:48 51°10.592 2°43.655 287.2 11.6 285 8
2012-04-26 10:02:48 51°10.605 2°43.341 267.2 12.2 265 8.4
2012-04-26 10:03:48 51°10.572 2°43.025 261.4 12.2 261 8.6
2012-04-26 10:04:48 51°10.542 2°42.705 262.5 12.3 261 9
2012-04-26 10:05:48 51°10.512 2°42.385 262.8 12.3 261 9.3
2012-04-26 10:06:48 51°10.488 2°42.062 268.2 12.3 267 9.9
2012-04-26 10:07:48 51°10.482 2°41.732 269 12.4 267 10.5
2012-04-26 10:08:48 51°10.461 2°41.405 263.3 12.4 262 11
2012-04-26 10:09:47 51°10.435 2°41.084 264.8 12.5 265 11
2012-04-26 10:10:48 51°10.415 2°40.749 265.1 12.6 265 11.4
2012-04-26 10:11:47 51°10.401 2°40.44 266.6 11 266 12
2012-04-26 10:12:48 51°10.386 2°40.199 261.2 7.1 262 12.5
2012-04-26 10:13:48 51°10.371 2°40.051 261.4 4.8 262 12.7
2012-04-26 10:14:48 51°10.365 2°39.945 263.2 3.6 266 12.9
2012-04-26 10:15:48 51°10.361 2°39.858 264.7 3.2 266 13.3
2012-04-26 10:16:47 51°10.363 2°39.781 268 3 277 13.2
2012-04-26 10:17:47 51°10.365 2°39.708 269.1 2.6 271 13.5
2012-04-26 10:18:47 51°10.37 2°39.638 268.6 2.6 273 13.8
2012-04-26 10:19:47 51°10.372 2°39.57 268.1 2.5 271 13.7
2012-04-26 10:20:48 51°10.373 2°39.504 266.7 2.4 268 14
2012-04-26 10:21:48 51°10.373 2°39.437 265.2 2.4 269 14.1
2012-04-26 10:22:48 51°10.375 2°39.372 265.9 2.5 276 14.3
2012-04-26 10:23:48 51°10.379 2°39.309 267.9 2.5 277 14.4
2012-04-26 10:24:48 51°10.379 2°39.245 265.1 2.5 269 14.6
2012-04-26 10:25:47 51°10.377 2°39.182 263.2 2.5 268 14.8
2012-04-26 10:26:48 51°10.374 2°39.118 262.8 2.5 269 14.7
2012-04-26 10:27:48 51°10.373 2°39.054 264.1 2.3 268 14.8
2012-04-26 10:28:48 51°10.373 2°38.991 264.4 2.3 270 15
2012-04-26 10:29:48 51°10.375 2°38.928 267 2.5 274 15.5
2012-04-26 10:30:47 51°10.376 2°38.867 266.5 2.5 275 15.7
2012-04-26 10:31:48 51°10.377 2°38.803 265.2 2.4 270 15.7
2012-04-26 10:32:47 51°10.379 2°38.741 266.4 2.4 273 15.9
2012-04-26 10:33:47 51°10.381 2°38.681 268 2.4 272 15.6
2012-04-26 10:34:47 51°10.381 2°38.621 265 2.2 269 16
2012-04-26 10:35:47 51°10.381 2°38.558 264.5 2.4 268 15.7
2012-04-26 10:36:48 51°10.379 2°38.492 262.3 2.4 267 16.1
2012-04-26 10:37:47 51°10.375 2°38.427 260.1 2.6 265 16.2
2012-04-26 10:38:47 51°10.37 2°38.36 261.4 2.5 261 16.4
2012-04-26 10:39:47 51°10.367 2°38.291 263.3 2.4 266 16.4
2012-04-26 10:40:48 51°10.364 2°38.223 265.3 2.6 264 16.7
2012-04-26 10:41:47 51°10.362 2°38.156 265.1 2.3 263 16.9
2012-04-26 10:42:48 51°10.359 2°38.091 267.1 2.5 269 17.3
2012-04-26 10:43:47 51°10.358 2°38.026 267 2.5 268 17.4
2012-04-26 10:44:48 51°10.356 2°37.96 267.5 2.5 265 17.3
2012-04-26 10:45:48 51°10.353 2°37.891 265.8 2.8 267 17.6
2012-04-26 10:46:47 51°10.352 2°37.825 266.5 2.7 269 17.8
2012-04-26 10:47:48 51°10.348 2°37.757 263.4 2.5 265 17.6
2012-04-26 10:48:47 51°10.348 2°37.685 260.9 3.2 269 17.8
2012-04-26 10:49:47 51°10.341 2°37.591 250.9 3.6 256 17.9
2012-04-26 10:50:47 51°10.319 2°37.506 240.5 3.5 246 18
2012-04-26 10:51:47 51°10.294 2°37.428 237 3.5 246 17.6
2012-04-26 10:52:47 51°10.27 2°37.341 239.4 3.7 244 17.6
2012-04-26 10:53:48 51°10.246 2°37.249 242.3 3.8 247 17.9
2012-04-26 10:54:48 51°10.219 2°37.157 241.1 4 246 17.8
2012-04-26 10:55:48 51°10.192 2°37.059 243.7 4.1 248 17.9
2012-04-26 10:56:48 51°10.169 2°36.957 248.5 4.1 250 17.7
2012-04-26 10:57:48 51°10.147 2°36.854 249.6 4.1 251 18
2012-04-26 10:58:48 51°10.125 2°36.754 247 3.9 249 18.1
2012-04-26 10:59:48 51°10.1 2°36.656 244 4 247 18.2
2012-04-26 11:00:48 51°10.07 2°36.562 240.5 4 244 18
2012-04-26 11:01:48 51°10.04 2°36.464 244.1 4.1 246 18
2012-04-26 11:02:48 51°10.016 2°36.363 247.9 4.1 249 17.9
2012-04-26 11:03:48 51°9.995 2°36.258 249.5 4.1 252 18
2012-04-26 11:04:48 51°9.97 2°36.159 245.3 4.1 247 18.3
2012-04-26 11:05:49 51°9.942 2°36.06 241.1 4.1 246 18.1
2012-04-26 11:06:47 51°9.914 2°35.965 242.1 4.1 245 18.2
2012-04-26 11:07:48 51°9.886 2°35.864 244.4 4.1 248 18.5
2012-04-26 11:08:48 51°9.862 2°35.76 248.1 4.2 251 18.5
2012-04-26 11:09:48 51°9.843 2°35.656 249.6 4.1 253 18.5
2012-04-26 11:10:48 51°9.823 2°35.557 246.3 3.8 251 18.5
2012-04-26 11:11:48 51°9.801 2°35.463 243.8 3.8 251 18.7
2012-04-26 11:12:48 51°9.779 2°35.372 241.6 3.7 247 18.7
2012-04-26 11:13:48 51°9.754 2°35.283 242.5 3.7 248 18.8
2012-04-26 11:14:48 51°9.732 2°35.189 245.4 3.8 250 18.9
2012-04-26 11:15:48 51°9.715 2°35.099 249.2 3 257 18.8
2012-04-26 11:16:48 51°9.707 2°35.033 251.9 2.2 262 18.6
2012-04-26 11:17:48 51°9.702 2°34.982 251.7 1.8 262 18.6
2012-04-26 11:18:48 51°9.699 2°34.937 252 1.6 264 18.6
2012-04-26 11:19:48 51°9.699 2°34.897 254.9 1.4 270 18.3
2012-04-26 11:20:48 51°9.703 2°34.865 264.2 1.1 293 18.1
2012-04-26 11:21:48 51°9.711 2°34.844 278.1 0.7 309 17.9
2012-04-26 11:22:48 51°9.719 2°34.836 297.6 0.5 349 18
2012-04-26 11:23:48 51°9.726 2°34.835 314.6 0.4 354 17.6
2012-04-26 11:24:48 51°9.732 2°34.837 325.9 0.3 31 17.4
2012-04-26 11:25:48 51°9.734 2°34.84 334.6 0.3 58 17.8
2012-04-26 11:26:48 51°9.737 2°34.849 338.7 0.5 50 17.7
2012-04-26 11:27:48 51°9.743 2°34.862 334 0.6 62 17.4
2012-04-26 11:28:48 51°9.747 2°34.872 331.8 0.5 58 17.8
2012-04-26 11:29:49 51°9.75 2°34.884 331.2 0.4 79 17.5
2012-04-26 11:30:48 51°9.753 2°34.895 332.6 0.4 82 17.7
2012-04-26 11:31:49 51°9.755 2°34.909 337.2 0.5 80 17.5
2012-04-26 11:32:48 51°9.756 2°34.921 338.7 0.4 76 17.5
2012-04-26 11:33:48 51°9.759 2°34.934 337.8 0.6 74 18
2012-04-26 11:34:48 51°9.761 2°34.948 338.5 0.6 78 17.8
2012-04-26 11:35:48 51°9.764 2°34.963 336.3 0.5 70 18
2012-04-26 11:36:48 51°9.768 2°34.978 334.4 0.6 67 18.1
2012-04-26 11:37:48 51°9.771 2°34.992 333.2 0.6 73 17.9
2012-04-26 11:38:48 51°9.775 2°35.008 334 0.7 71 17.9
2012-04-26 11:39:48 51°9.779 2°35.025 333.1 0.8 70 18
2012-04-26 11:40:48 51°9.782 2°35.042 333.4 0.7 73 18.3
2012-04-26 11:41:48 51°9.785 2°35.057 333.7 0.5 71 18.2
2012-04-26 11:42:47 51°9.789 2°35.073 337.1 0.6 70 18.2
2012-04-26 11:43:48 51°9.792 2°35.088 336.6 0.6 70 18
2012-04-26 11:44:48 51°9.797 2°35.104 334.1 0.6 71 18
2012-04-26 11:45:48 51°9.801 2°35.12 334.3 0.7 72 18.4
2012-04-26 11:46:47 51°9.805 2°35.136 332.5 0.6 73 18.4
2012-04-26 11:47:48 51°9.808 2°35.153 334.5 0.7 72 18.3
2012-04-26 11:48:48 51°9.811 2°35.169 336.4 0.6 75 18.3
2012-04-26 11:49:48 51°9.814 2°35.186 335.9 0.6 72 18.5
2012-04-26 11:50:48 51°9.818 2°35.202 335.1 0.5 72 18.6
2012-04-26 11:51:48 51°9.823 2°35.22 330 0.6 72 18.4
2012-04-26 11:52:48 51°9.828 2°35.24 329.6 0.8 73 18.4
2012-04-26 11:53:48 51°9.833 2°35.261 331.3 0.9 74 18.5
2012-04-26 11:54:48 51°9.837 2°35.281 329.1 0.8 69 18.5
2012-04-26 11:55:49 51°9.843 2°35.304 330.9 1 73 18.3
2012-04-26 11:56:48 51°9.847 2°35.325 332.7 0.9 70 18.8
2012-04-26 11:57:48 51°9.852 2°35.348 332.7 0.9 70 18.5
2012-04-26 11:58:48 51°9.857 2°35.37 330.6 0.8 70 18.7
2012-04-26 11:59:48 51°9.862 2°35.391 329.8 1 65 19.4
2012-04-26 12:00:48 51°9.867 2°35.413 329.5 0.8 68 18.8
2012-04-26 12:01:48 51°9.872 2°35.433 328.2 0.8 66 18.5
2012-04-26 12:02:48 51°9.878 2°35.454 329.6 0.9 64 19.1
2012-04-26 12:03:49 51°9.882 2°35.474 330.5 0.8 70 19
2012-04-26 12:04:48 51°9.886 2°35.495 332.5 1 69 19
2012-04-26 12:05:48 51°9.891 2°35.52 333.8 1 70 18.8
2012-04-26 12:06:49 51°9.897 2°35.549 331.6 1.1 74 18.9
2012-04-26 12:07:48 51°9.901 2°35.577 331.8 1.2 76 19.2
2012-04-26 12:08:48 51°9.905 2°35.607 332.9 1.1 83 18.9
2012-04-26 12:09:48 51°9.908 2°35.639 336.1 1.3 81 19.3
2012-04-26 12:10:49 51°9.91 2°35.672 339 1.2 83 19.1
2012-04-26 12:11:48 51°9.912 2°35.702 339.2 1.3 80 19
2012-04-26 12:12:48 51°9.945 2°35.73 18.4 3.5 28 18.7
2012-04-26 12:13:48 51°9.972 2°35.818 93.2 4.1 92 19
2012-04-26 12:14:48 51°9.937 2°35.908 142.5 4.6 134 19.4
2012-04-26 12:15:49 51°9.854 2°36.021 148.8 6.8 144 19.3
2012-04-26 12:16:48 51°9.786 2°36.081 162.5 3.9 152 18.8
2012-04-26 12:17:48 51°9.736 2°36.124 165.6 3.3 154 19.2
2012-04-26 12:18:48 51°9.688 2°36.158 172.1 3.1 157 18.9
2012-04-26 12:19:48 51°9.635 2°36.182 181.5 3.4 168 18.3
2012-04-26 12:20:48 51°9.58 2°36.189 193.3 3.3 182 18.4
2012-04-26 12:21:48 51°9.529 2°36.171 210.3 3.2 200 18.1
2012-04-26 12:22:48 51°9.487 2°36.128 228.7 2.8 220 17.6
2012-04-26 12:23:48 51°9.454 2°36.07 231 3 227 17.4
2012-04-26 12:24:48 51°9.419 2°36.01 231.7 3.2 227 17.6
2012-04-26 12:25:48 51°9.389 2°35.944 236.8 3.1 237 18
2012-04-26 12:26:48 51°9.357 2°35.877 233.1 3.2 229 17.8
2012-04-26 12:27:48 51°9.321 2°35.818 228.7 3.1 225 17.9
2012-04-26 12:28:48 51°9.286 2°35.761 230.9 3 228 17.9
2012-04-26 12:29:48 51°9.253 2°35.7 234.9 3.1 231 18.1
2012-04-26 12:30:48 51°9.222 2°35.636 236.1 3.1 232 17.9
2012-04-26 12:31:48 51°9.189 2°35.569 233.7 3.2 228 17.9
2012-04-26 12:32:48 51°9.154 2°35.511 228.4 3.2 223 17.9
2012-04-26 12:33:48 51°9.113 2°35.458 222.9 3.1 211 17.7
2012-04-26 12:34:48 51°9.061 2°35.441 188.4 3.5 171 17.8
2012-04-26 12:35:48 51°9.003 2°35.46 188.6 3.5 174 17.9
2012-04-26 12:36:48 51°8.949 2°35.46 197.3 2.9 182 17.6
2012-04-26 12:37:48 51°8.911 2°35.454 210.6 1.9 190 17.2
2012-04-26 12:38:48 51°8.883 2°35.439 220.9 1.6 196 16.5
2012-04-26 12:39:48 51°8.86 2°35.418 230.9 1.4 215 17.2
2012-04-26 12:40:48 51°8.847 2°35.388 253.4 1.9 262 17
2012-04-26 12:41:48 51°8.865 2°35.331 298 2.2 325 17.4
2012-04-26 12:42:48 51°8.892 2°35.314 299.3 1.3 354 18
2012-04-26 12:43:48 51°8.912 2°35.324 301.2 1.2 33 18.2
2012-04-26 12:44:48 51°8.929 2°35.345 304.5 1.3 48 17.8
2012-04-26 12:45:48 51°8.981 2°35.313 336.5 4.5 352 17.9
2012-04-26 12:46:48 51°9.055 2°35.338 9.6 4.1 20 18.1
2012-04-26 12:47:48 51°9.106 2°35.37 2.2 2.6 20 18.2
2012-04-26 12:48:48 51°9.143 2°35.396 347.9 2 25 18.4
2012-04-26 12:49:48 51°9.17 2°35.416 336.8 1.9 30 18.4
2012-04-26 12:50:48 51°9.191 2°35.443 325.8 1.9 42 18.4
2012-04-26 12:51:48 51°9.225 2°35.451 335.4 2.7 1 18.2
2012-04-26 12:52:48 51°9.3 2°35.448 341.7 6.2 350 18.5
2012-04-26 12:53:48 51°9.445 2°35.418 355.7 11 1 19.3
2012-04-26 12:54:48 51°9.645 2°35.45 4.3 12.3 7 20.7
2012-04-26 12:55:48 51°9.85 2°35.484 3.6 12.3 6 20
2012-04-26 12:56:48 51°10.054 2°35.514 0.6 12.2 2 15
2012-04-26 12:57:48 51°10.257 2°35.533 0.1 12.1 1 13.3
2012-04-26 12:58:48 51°10.458 2°35.565 10 12.3 12 12.4
2012-04-26 12:59:48 51°10.651 2°35.69 21.2 12.7 29 12.4
2012-04-26 13:00:48 51°10.842 2°35.823 21.5 12.5 27 12.5
2012-04-26 13:01:48 51°11.033 2°35.963 20.9 12.6 25 12.3
2012-04-26 13:02:48 51°11.222 2°36.108 23.9 12.7 27 12.4
2012-04-26 13:03:48 51°11.412 2°36.248 20.1 12.5 24 12.1
2012-04-26 13:04:48 51°11.596 2°36.407 30.6 12.7 33 12.3
2012-04-26 13:05:48 51°11.772 2°36.591 31.1 12.7 36 12.2
2012-04-26 13:06:48 51°11.943 2°36.789 34.2 12.6 34 12.4
2012-04-26 13:07:48 51°12.121 2°36.961 27.7 12.6 29 12.3
2012-04-26 13:08:48 51°12.296 2°37.149 37 12.7 41 12.7
2012-04-26 13:09:48 51°12.449 2°37.385 40.5 12.8 42 13.4
2012-04-26 13:10:48 51°12.607 2°37.61 37 12.7 46 14.3
2012-04-26 13:11:48 51°12.768 2°37.833 41.3 13.2 49 14.8
2012-04-26 13:12:48 51°12.929 2°38.052 40.1 12.7 39 15.6
2012-04-26 13:13:48 51°13.078 2°38.296 46.5 13 50 16
2012-04-26 13:14:48 51°13.222 2°38.547 47.3 12.7 48 16.6
2012-04-26 13:15:48 51°13.366 2°38.795 44.4 12.7 48 15.3
2012-04-26 13:16:48 51°13.511 2°39.045 45.4 12.7 43 16.1
2012-04-26 13:17:48 51°13.655 2°39.291 43.5 12.6 53 16.5
2012-04-26 13:18:48 51°13.759 2°39.586 66.9 13.2 66 15.9
2012-04-26 13:19:48 51°13.832 2°39.911 70.4 12.7 72 16.6
2012-04-26 13:20:48 51°13.906 2°40.234 70.8 13.2 71 17.2
2012-04-26 13:21:48 51°13.956 2°40.573 77.5 13.3 75 15.3
2012-04-26 13:22:48 51°14.012 2°40.914 77.2 13.2 72 17.4
2012-04-26 13:23:48 51°14.07 2°41.253 76.3 13.4 75 18.5
2012-04-26 13:24:48 51°14.13 2°41.591 75.6 13.4 76 19.4
2012-04-26 13:25:48 51°14.196 2°41.928 74 13 73 19.7
2012-04-26 13:26:48 51°14.26 2°42.266 73.2 13.3 72 19.5
2012-04-26 13:27:48 51°14.333 2°42.598 71.4 13.3 70 19.8
2012-04-26 13:28:48 51°14.412 2°42.924 62.9 12.9 57 19.8
2012-04-26 13:29:48 51°14.568 2°43.164 38.4 13.2 40 20.5
2012-04-26 13:30:48 51°14.744 2°43.37 35.7 13 33 20.5
2012-04-26 13:31:48 51°14.89 2°43.629 58.5 13.4 61 20.7
2012-04-26 13:32:48 51°14.939 2°43.967 91.3 13 88 20.7
2012-04-26 13:33:48 51°14.936 2°44.315 96.1 13.1 91 19.7
2012-04-26 13:34:48 51°14.915 2°44.662 102.4 13.1 98 18.7
2012-04-26 13:35:48 51°14.881 2°45.009 106.8 13.2 103 17.9
2012-04-26 13:36:48 51°14.829 2°45.343 111.9 12.9 103 15.6
2012-04-26 13:37:48 51°14.81 2°45.69 97.2 13.4 92 13.9
2012-04-26 13:38:48 51°14.8 2°46.041 98 13.2 95 11.8
2012-04-26 13:39:48 51°14.777 2°46.39 98.9 13.1 96 11.7
2012-04-26 13:40:48 51°14.765 2°46.736 97.4 13.1 92 13.6
2012-04-26 13:41:48 51°14.754 2°47.085 98.9 13.4 93 15.6
2012-04-26 13:42:48 51°14.745 2°47.436 97.1 13.5 92 15.6
2012-04-26 13:43:48 51°14.744 2°47.79 97.4 13.5 91 14.9
2012-04-26 13:44:48 51°14.738 2°48.142 92.1 13.5 86 14.1
2012-04-26 13:45:48 51°14.762 2°48.493 85.3 13.4 80 14.6
2012-04-26 13:46:48 51°14.789 2°48.84 89.1 12.9 83 15.1
2012-04-26 13:47:48 51°14.808 2°49.19 88.9 13.2 85 15.4
2012-04-26 13:48:48 51°14.826 2°49.539 91.8 12.9 86 15.1
2012-04-26 13:49:48 51°14.843 2°49.889 90 13.2 84 15.1
2012-04-26 13:50:48 51°14.865 2°50.239 91.7 13.3 86 15
2012-04-26 13:51:48 51°14.886 2°50.59 90.1 13.1 85 14.6
2012-04-26 13:52:48 51°14.906 2°50.94 90.3 13.3 85 14.4
2012-04-26 13:53:48 51°14.922 2°51.292 92.8 13.3 88 14.3
2012-04-26 13:54:48 51°14.94 2°51.64 89.4 13 83 14
2012-04-26 13:55:48 51°14.958 2°51.987 91.4 13 85 13.6
2012-04-26 13:56:48 51°14.98 2°52.335 90.2 13.3 84 13.2
2012-04-26 13:57:48 51°15.005 2°52.683 90.5 13.2 86 13.2
2012-04-26 13:58:48 51°15.023 2°53.032 94.4 13.4 88 13
2012-04-26 13:59:48 51°15.036 2°53.38 91.8 13.5 84 12.5
2012-04-26 14:00:48 51°15.065 2°53.733 86.8 13.4 81 12.4
2012-04-26 14:01:48 51°15.086 2°54.081 98.8 13 92 11.8
2012-04-26 14:02:48 51°15.019 2°54.396 129.7 12.1 123 13.5
2012-04-26 14:03:48 51°14.888 2°54.628 144.5 11.8 133 14.5
2012-04-26 14:04:48 51°14.744 2°54.834 148.1 11.7 137 14
2012-04-26 14:05:48 51°14.594 2°55.027 153.2 11.7 140 14.4
2012-04-26 14:06:50 51°14.421 2°55.148 155.5 10.1 151 -999
2012-04-26 14:07:51 51°14.301 2°55.251 154 7.4 152 -999
2012-04-26 14:08:51 51°14.187 2°55.35 150.9 8.3 151 12.6
2012-04-26 14:09:51 51°14.066 2°55.467 152.3 8.5 151 12.9
2012-04-26 14:10:51 51°13.952 2°55.554 158.4 6.9 156 12.8
2012-04-26 14:11:51 51°13.852 2°55.626 158.5 6.5 157 -999
2012-04-26 14:12:51 51°13.763 2°55.71 142.4 5.6 137 -999
2012-04-26 14:13:51 51°13.703 2°55.816 131.9 5.3 128 -999
2012-04-26 14:14:51 51°13.659 2°55.914 121.3 3.7 118 -999
2012-04-26 14:15:52 51°13.641 2°56 109.3 2.7 105 -999
2012-04-26 14:16:52 51°13.636 2°56.019 125.2 -999 239 -999
2012-04-26 14:17:52 51°13.636 2°56.019 128.3 0.3 223 -999
2012-04-26 14:18:51 51°13.638 2°56.017 124.9 -999 109 -999